createdAt,value
2022-12-31T00:02:11.467Z,101102.28
2022-12-31T00:05:14.772Z,101112.81
2022-12-31T00:08:17.288Z,101104.13
2022-12-31T00:11:22.082Z,101101.81
2022-12-31T00:14:24.666Z,101103.09
2022-12-31T00:17:27.213Z,101118.47
2022-12-31T00:20:30.033Z,101113.03
2022-12-31T00:23:32.564Z,101115.06
2022-12-31T00:26:35.175Z,101115.97
2022-12-31T00:29:37.597Z,101091.38
2022-12-31T00:32:41.041Z,101124.75
2022-12-31T00:35:43.400Z,101116.91
2022-12-31T00:38:47.913Z,101125.97
2022-12-31T00:41:50.392Z,101139.28
2022-12-31T00:44:52.871Z,101136.41
2022-12-31T00:47:55.235Z,101142.78
2022-12-31T00:50:58.243Z,101153.84
2022-12-31T00:54:01.100Z,101142.78
2022-12-31T00:57:03.702Z,101150.06
2022-12-31T01:00:07.675Z,101156.31
2022-12-31T01:03:10.813Z,101158.22
2022-12-31T01:06:13.811Z,101149.81
2022-12-31T01:09:17.200Z,101159.34
2022-12-31T01:12:19.610Z,101158.84
2022-12-31T01:15:22.055Z,101158.03
2022-12-31T01:18:24.564Z,101140.88
2022-12-31T01:21:27.661Z,101155.06
2022-12-31T01:24:30.208Z,101150.88
2022-12-31T01:27:32.631Z,101168.38
2022-12-31T01:30:39.033Z,101140.56
2022-12-31T01:33:42.546Z,101150.66
2022-12-31T01:36:45.084Z,101144.44
2022-12-31T01:39:47.709Z,101164.34
2022-12-31T01:42:57.937Z,101163.66
2022-12-31T01:46:00.727Z,101175.25
2022-12-31T01:49:11.207Z,101157.63
2022-12-31T01:52:17.033Z,101177.91
2022-12-31T01:55:33.429Z,101154.66
2022-12-31T01:58:42.682Z,101148.84
2022-12-31T02:01:48.256Z,101146.84
2022-12-31T02:04:54.567Z,101138.50
2022-12-31T02:07:57.675Z,101161.72
2022-12-31T02:11:00.103Z,101144.63
2022-12-31T02:14:08.013Z,101170.09
2022-12-31T02:17:32.583Z,101171.56
2022-12-31T02:20:59.980Z,101162.31
2022-12-31T02:24:16.681Z,101137.56
2022-12-31T02:27:45.157Z,101161.81
2022-12-31T02:30:51.721Z,101170.34
2022-12-31T02:34:06.122Z,101182.16
2022-12-31T02:37:12.838Z,101160.72
2022-12-31T02:40:19.917Z,101162.28
2022-12-31T02:43:22.549Z,101180.81
2022-12-31T02:46:36.647Z,101169.72
2022-12-31T02:50:00.222Z,101182.53
2022-12-31T02:53:08.727Z,101173.28
2022-12-31T02:56:13.919Z,101164.59
2022-12-31T02:59:44.401Z,101139.91
2022-12-31T03:02:49.069Z,101137.94
2022-12-31T03:05:51.892Z,101135.56
2022-12-31T03:09:12.810Z,101149.59
2022-12-31T03:12:34.329Z,101127.16
2022-12-31T03:15:37.073Z,101151.41
2022-12-31T03:18:57.986Z,101133.44
2022-12-31T03:22:19.558Z,101151.31
2022-12-31T03:25:38.963Z,101147.84
2022-12-31T03:28:47.854Z,101143.16
2022-12-31T03:31:50.687Z,101168.28
2022-12-31T03:34:53.207Z,101150.41
2022-12-31T03:37:56.693Z,101146.22
2022-12-31T03:40:59.314Z,101142.69
2022-12-31T03:44:01.721Z,101123.63
2022-12-31T03:47:04.218Z,101136.16
2022-12-31T03:50:08.910Z,101132.31
2022-12-31T03:53:11.471Z,101142.00
2022-12-31T03:56:13.891Z,101150.13
2022-12-31T03:59:16.537Z,101152.03
2022-12-31T04:02:22.040Z,101155.88
2022-12-31T04:05:29.233Z,101148.75
2022-12-31T04:08:31.719Z,101139.28
2022-12-31T04:11:34.249Z,101143.88
2022-12-31T04:14:36.752Z,101142.63
2022-12-31T04:17:39.272Z,101135.25
2022-12-31T04:20:41.901Z,101158.00
2022-12-31T04:23:44.501Z,101158.13
2022-12-31T04:26:46.975Z,101153.94
2022-12-31T04:29:49.875Z,101162.66
2022-12-31T04:32:52.777Z,101186.34
2022-12-31T04:36:01.606Z,101186.44
2022-12-31T04:39:05.166Z,101165.31
2022-12-31T04:42:07.748Z,101183.44
2022-12-31T04:45:10.647Z,101173.19
2022-12-31T04:48:13.157Z,101184.72
2022-12-31T04:51:15.959Z,101199.31
2022-12-31T04:54:18.443Z,101204.91
2022-12-31T04:57:20.957Z,101207.88
2022-12-31T05:00:23.489Z,101203.56
2022-12-31T05:03:27.135Z,101226.13
2022-12-31T05:06:29.983Z,101215.28
2022-12-31T05:09:32.617Z,101201.84
2022-12-31T05:12:35.057Z,101226.09
2022-12-31T05:15:37.681Z,101227.97
2022-12-31T05:18:40.280Z,101201.03
2022-12-31T05:21:42.914Z,101204.84
2022-12-31T05:24:45.347Z,101230.84
2022-12-31T05:27:47.863Z,101236.44
2022-12-31T05:30:51.518Z,101245.19
2022-12-31T05:33:54.042Z,101242.22
2022-12-31T05:36:56.446Z,101247.22
2022-12-31T05:39:59.589Z,101239.19
2022-12-31T05:43:02.174Z,101237.31
2022-12-31T05:46:04.972Z,101224.19
2022-12-31T05:49:07.708Z,101247.31
2022-12-31T05:52:10.740Z,101234.75
2022-12-31T05:55:13.706Z,101246.63
2022-12-31T05:58:16.951Z,101236.63
2022-12-31T06:01:19.539Z,101251.69
2022-12-31T06:04:22.204Z,101240.06
2022-12-31T06:07:24.612Z,101247.25
2022-12-31T06:10:27.078Z,101250.06
2022-12-31T06:13:29.985Z,101249.50
2022-12-31T06:16:32.442Z,101250.31
2022-12-31T06:19:36.044Z,101252.47
2022-12-31T06:22:38.451Z,101236.47
2022-12-31T06:25:42.084Z,101241.56
2022-12-31T06:28:44.833Z,101248.13
2022-12-31T06:31:47.277Z,101236.81
2022-12-31T06:34:49.729Z,101251.69
2022-12-31T06:37:52.455Z,101271.31
2022-12-31T06:40:55.135Z,101260.22
2022-12-31T06:43:57.619Z,101255.59
2022-12-31T06:47:01.781Z,101276.97
2022-12-31T06:50:05.344Z,101278.03
2022-12-31T06:53:08.117Z,101279.28
2022-12-31T06:56:34.425Z,101283.22
2022-12-31T06:59:38.262Z,101291.78
2022-12-31T07:03:19.969Z,101295.28
2022-12-31T07:06:44.260Z,101289.88
2022-12-31T07:10:15.248Z,101301.09
2022-12-31T07:13:41.865Z,101286.22
2022-12-31T07:16:57.579Z,101289.69
2022-12-31T07:20:00.238Z,101302.31
2022-12-31T07:23:03.002Z,101302.56
2022-12-31T07:26:38.030Z,101307.13
2022-12-31T07:30:01.977Z,101307.91
2022-12-31T07:33:13.257Z,101303.34
2022-12-31T07:36:53.312Z,101305.38
2022-12-31T07:40:17.103Z,101310.38
2022-12-31T07:43:35.402Z,101309.75
2022-12-31T07:46:56.862Z,101318.22
2022-12-31T07:49:59.586Z,101310.19
2022-12-31T07:53:02.210Z,101293.75
2022-12-31T07:56:09.812Z,101299.13
2022-12-31T07:59:34.038Z,101343.72
2022-12-31T08:02:55.132Z,101336.25
2022-12-31T08:06:33.548Z,101326.97
2022-12-31T08:09:41.766Z,101329.41
2022-12-31T08:12:46.009Z,101316.59
2022-12-31T08:15:48.853Z,101320.44
2022-12-31T08:18:51.532Z,101333.81
2022-12-31T08:22:22.081Z,101345.38
2022-12-31T08:25:35.209Z,101348.09
2022-12-31T08:29:21.930Z,101356.13
2022-12-31T08:32:30.652Z,101359.44
2022-12-31T08:36:10.534Z,101362.41
2022-12-31T08:39:25.140Z,101378.25
2022-12-31T08:42:37.051Z,101359.72
2022-12-31T08:45:46.503Z,101347.63
2022-12-31T08:48:49.318Z,101381.25
2022-12-31T08:51:52.163Z,101377.19
2022-12-31T08:54:54.931Z,101378.91
2022-12-31T08:58:26.327Z,101400.50
2022-12-31T09:01:39.917Z,101402.03
2022-12-31T09:05:24.199Z,101409.19
2022-12-31T09:08:41.892Z,101409.88
2022-12-31T09:12:07.730Z,101380.97
2022-12-31T09:15:15.829Z,101389.88
2022-12-31T09:18:18.959Z,101379.03
2022-12-31T09:21:21.723Z,101372.03
2022-12-31T09:24:24.503Z,101367.22
2022-12-31T09:27:56.131Z,101375.84
2022-12-31T09:31:12.918Z,101368.44
2022-12-31T09:34:26.403Z,101346.19
2022-12-31T09:37:49.889Z,101360.03
2022-12-31T09:41:15.958Z,101358.91
2022-12-31T09:44:42.843Z,101329.97
2022-12-31T09:48:13.115Z,101339.44
2022-12-31T09:51:25.532Z,101338.56
2022-12-31T09:54:39.191Z,101315.97
2022-12-31T09:57:45.407Z,101327.56
2022-12-31T10:00:58.745Z,101315.63
2022-12-31T10:04:19.088Z,101337.22
2022-12-31T10:07:48.786Z,101347.00
2022-12-31T10:10:59.533Z,101340.94
2022-12-31T10:14:23.862Z,101350.63
2022-12-31T10:17:48.979Z,101338.78
2022-12-31T10:21:13.281Z,101350.16
2022-12-31T10:24:36.693Z,101321.25
2022-12-31T10:28:05.720Z,101319.00
2022-12-31T10:31:15.419Z,101310.97
2022-12-31T10:34:36.879Z,101322.56
2022-12-31T10:38:17.618Z,101333.25
2022-12-31T10:41:33.886Z,101306.19
2022-12-31T10:44:54.784Z,101330.28
2022-12-31T10:48:10.689Z,101327.41
2022-12-31T10:51:19.198Z,101342.59
2022-12-31T10:54:48.683Z,101329.50
2022-12-31T10:58:06.503Z,101327.00
2022-12-31T11:01:30.495Z,101319.31
2022-12-31T11:05:11.386Z,101325.09
2022-12-31T11:09:07.092Z,101324.50
2022-12-31T11:12:21.501Z,101320.16
2022-12-31T11:15:55.185Z,101322.69
2022-12-31T11:19:19.156Z,101325.72
2022-12-31T11:22:42.564Z,101339.06
2022-12-31T11:26:08.624Z,101317.22
2022-12-31T11:30:01.328Z,101320.69
2022-12-31T11:33:33.342Z,101319.28
2022-12-31T11:36:44.476Z,101318.63
2022-12-31T11:39:56.118Z,101330.13
2022-12-31T11:43:11.100Z,101318.94
2022-12-31T11:46:16.760Z,101308.28
2022-12-31T11:49:26.265Z,101295.19
2022-12-31T11:52:47.539Z,101293.25
2022-12-31T11:56:06.617Z,101294.34
2022-12-31T11:59:18.993Z,101318.66
2022-12-31T12:02:29.028Z,101327.84
2022-12-31T12:05:33.857Z,101300.50
2022-12-31T12:08:36.664Z,101307.47
2022-12-31T12:11:40.681Z,101317.03
2022-12-31T12:14:45.417Z,101319.13
2022-12-31T12:17:54.159Z,101312.47
2022-12-31T12:21:08.731Z,101321.69
2022-12-31T12:24:22.492Z,101310.22
2022-12-31T12:27:30.064Z,101308.25
2022-12-31T12:30:38.612Z,101303.44
2022-12-31T12:33:43.835Z,101303.78
2022-12-31T12:36:48.364Z,101312.81
2022-12-31T12:40:02.179Z,101316.22
2022-12-31T12:43:04.754Z,101310.38
2022-12-31T12:46:17.308Z,101294.03
2022-12-31T12:49:24.681Z,101294.66
2022-12-31T12:52:41.707Z,101305.25
2022-12-31T12:56:08.237Z,101308.03
2022-12-31T12:59:31.991Z,101291.63
2022-12-31T13:02:43.314Z,101309.47
2022-12-31T13:06:07.271Z,101300.00
2022-12-31T13:09:27.859Z,101308.34
2022-12-31T13:13:22.091Z,101298.81
2022-12-31T13:16:19.159Z,101274.06
2022-12-31T13:19:31.019Z,101299.97
2022-12-31T13:22:59.072Z,101310.16
2022-12-31T13:26:21.773Z,101315.88
2022-12-31T13:29:31.388Z,101281.38
2022-12-31T13:32:59.633Z,101293.22
2022-12-31T13:36:07.497Z,101304.72
2022-12-31T13:39:19.205Z,101317.34
2022-12-31T13:42:29.715Z,101328.19
2022-12-31T13:45:41.750Z,101311.84
2022-12-31T13:48:53.481Z,101321.72
2022-12-31T13:52:12.607Z,101318.16
2022-12-31T13:55:23.031Z,101326.25
2022-12-31T13:58:31.675Z,101336.78
2022-12-31T14:01:41.056Z,101330.63
2022-12-31T14:04:50.686Z,101313.94
2022-12-31T14:08:01.930Z,101319.31
2022-12-31T14:11:18.076Z,101326.09
2022-12-31T14:14:28.453Z,101332.06
2022-12-31T14:17:39.165Z,101335.63
2022-12-31T14:20:48.089Z,101323.19
2022-12-31T14:24:21.748Z,101295.34
2022-12-31T14:27:29.796Z,101317.19
2022-12-31T14:30:40.401Z,101326.88
2022-12-31T14:34:06.673Z,101343.38
2022-12-31T14:37:24.192Z,101335.13
2022-12-31T14:40:31.034Z,101343.22
2022-12-31T14:44:03.502Z,101337.06
2022-12-31T14:47:08.697Z,101309.09
2022-12-31T14:50:11.194Z,101310.34
2022-12-31T14:53:25.198Z,101325.06
2022-12-31T14:56:44.739Z,101339.13
2022-12-31T15:00:01.376Z,101306.38
2022-12-31T15:03:14.679Z,101337.63
2022-12-31T15:06:23.363Z,101342.78
2022-12-31T15:09:58.230Z,101352.34
2022-12-31T15:13:03.469Z,101355.91
2022-12-31T15:16:35.360Z,101367.06
2022-12-31T15:19:58.407Z,101350.16
2022-12-31T15:23:01.045Z,101332.97
2022-12-31T15:26:05.491Z,101324.84
2022-12-31T15:29:24.353Z,101359.19
2022-12-31T15:32:36.995Z,101370.81
2022-12-31T15:35:55.135Z,101351.72
2022-12-31T15:39:05.363Z,101352.38
2022-12-31T15:42:49.853Z,101387.94
2022-12-31T15:45:55.803Z,101384.84
2022-12-31T15:49:06.829Z,101367.06
2022-12-31T15:52:20.685Z,101379.34
2022-12-31T15:55:29.208Z,101367.72
2022-12-31T15:58:35.923Z,101354.41
2022-12-31T16:01:41.469Z,101345.13
2022-12-31T16:04:44.534Z,101368.38
2022-12-31T16:07:47.423Z,101347.63
2022-12-31T16:10:50.325Z,101351.47
2022-12-31T16:13:56.037Z,101350.94
2022-12-31T16:17:00.871Z,101366.63
2022-12-31T16:20:31.406Z,101362.44
2022-12-31T16:23:37.477Z,101366.06
2022-12-31T16:26:48.235Z,101348.38
2022-12-31T16:30:00.898Z,101362.88
2022-12-31T16:33:07.063Z,101341.25
2022-12-31T16:36:23.641Z,101372.75
2022-12-31T16:39:32.348Z,101357.66
2022-12-31T16:42:44.149Z,101378.16
2022-12-31T16:45:47.108Z,101378.88
2022-12-31T16:48:59.190Z,101377.69
2022-12-31T16:52:22.940Z,101374.50
2022-12-31T16:55:28.798Z,101347.47
2022-12-31T16:58:34.650Z,101367.09
2022-12-31T17:01:38.236Z,101368.63
2022-12-31T17:04:46.923Z,101372.13
2022-12-31T17:07:52.973Z,101366.56
2022-12-31T17:10:56.527Z,101372.75
2022-12-31T17:14:13.304Z,101377.13
2022-12-31T17:17:27.781Z,101380.13
2022-12-31T17:20:33.387Z,101385.97
2022-12-31T17:23:39.646Z,101389.88
2022-12-31T17:26:42.617Z,101383.75
2022-12-31T17:29:45.215Z,101387.38
2022-12-31T17:32:50.086Z,101403.81
2022-12-31T17:36:17.291Z,101383.44
2022-12-31T17:39:22.922Z,101379.78
2022-12-31T17:42:37.593Z,101379.63
2022-12-31T17:45:43.222Z,101387.53
2022-12-31T17:48:51.937Z,101388.25
2022-12-31T17:51:54.378Z,101392.84
2022-12-31T17:54:57.178Z,101390.03
2022-12-31T17:58:04.995Z,101385.88
2022-12-31T18:01:08.980Z,101368.72
2022-12-31T18:04:14.333Z,101379.53
2022-12-31T18:07:16.795Z,101378.00
2022-12-31T18:10:24.268Z,101382.72
2022-12-31T18:13:27.748Z,101380.06
2022-12-31T18:16:30.629Z,101376.06
2022-12-31T18:22:55.981Z,101389.25
2022-12-31T18:25:58.373Z,101403.09
2022-12-31T18:29:12.192Z,101412.97
2022-12-31T18:32:26.060Z,101410.41
2022-12-31T18:38:50.950Z,101421.78
2022-12-31T18:41:54.152Z,101433.94
2022-12-31T18:44:56.643Z,101420.94
2022-12-31T18:47:59.108Z,101428.41
2022-12-31T18:51:01.599Z,101422.66
2022-12-31T18:54:04.995Z,101432.94
2022-12-31T18:57:07.543Z,101435.09
2022-12-31T19:00:11.133Z,101418.16
2022-12-31T19:03:21.723Z,101419.94
2022-12-31T19:06:25.783Z,101414.03
2022-12-31T19:09:45.247Z,101422.16
2022-12-31T19:12:48.960Z,101430.88
2022-12-31T19:15:53.356Z,101441.34
2022-12-31T19:18:55.851Z,101423.50
2022-12-31T19:21:58.304Z,101419.59
2022-12-31T19:25:00.705Z,101419.09
2022-12-31T19:28:06.256Z,101417.59
2022-12-31T19:31:08.722Z,101428.84
2022-12-31T19:34:11.550Z,101419.00
2022-12-31T19:37:15.789Z,101411.69
2022-12-31T19:40:22.119Z,101419.66
2022-12-31T19:43:24.775Z,101413.59
2022-12-31T19:46:28.478Z,101409.28
2022-12-31T19:49:31.124Z,101402.91
2022-12-31T19:52:33.561Z,101401.00
2022-12-31T19:55:35.939Z,101392.34
2022-12-31T19:58:38.604Z,101381.66
2022-12-31T20:01:41.354Z,101391.94
2022-12-31T20:04:43.946Z,101404.03
2022-12-31T20:07:47.026Z,101394.00
2022-12-31T20:10:50.557Z,101405.91
2022-12-31T20:13:54.121Z,101393.47
2022-12-31T20:16:56.755Z,101400.91
2022-12-31T20:19:59.364Z,101399.00
2022-12-31T20:23:02.712Z,101398.88
2022-12-31T20:26:05.391Z,101382.91
2022-12-31T20:29:07.887Z,101385.22
2022-12-31T20:32:10.469Z,101397.69
2022-12-31T20:35:12.877Z,101380.19
2022-12-31T20:38:15.446Z,101404.44
2022-12-31T20:41:21.328Z,101412.59
2022-12-31T20:44:23.765Z,101410.25
2022-12-31T20:47:26.185Z,101424.50
2022-12-31T20:50:28.675Z,101418.66
2022-12-31T20:53:31.102Z,101394.97
2022-12-31T20:56:36.034Z,101376.13
2022-12-31T20:59:38.550Z,101399.44
2022-12-31T21:02:43.036Z,101410.41
2022-12-31T21:05:54.559Z,101415.69
2022-12-31T21:08:59.384Z,101415.69
2022-12-31T21:12:20.570Z,101408.50
2022-12-31T21:15:23.063Z,101428.81
2022-12-31T21:18:25.917Z,101410.53
2022-12-31T21:21:28.658Z,101418.81
2022-12-31T21:24:31.163Z,101423.69
2022-12-31T21:27:35.356Z,101427.59
2022-12-31T21:30:39.954Z,101448.16
2022-12-31T21:33:47.143Z,101458.22
2022-12-31T21:36:49.595Z,101441.13
2022-12-31T21:39:52.057Z,101437.88
2022-12-31T21:42:54.869Z,101457.69
2022-12-31T21:46:05.580Z,101440.59
2022-12-31T21:49:08.111Z,101450.38
2022-12-31T21:52:26.816Z,101442.09
2022-12-31T21:55:47.673Z,101438.28
2022-12-31T21:59:15.331Z,101461.16
2022-12-31T22:02:36.172Z,101445.03
2022-12-31T22:05:46.917Z,101455.47
2022-12-31T22:08:53.173Z,101445.81
2022-12-31T22:11:55.762Z,101464.25
2022-12-31T22:15:14.538Z,101444.34
2022-12-31T22:18:18.812Z,101452.88
2022-12-31T22:21:23.973Z,101449.91
2022-12-31T22:24:26.472Z,101423.06
2022-12-31T22:27:30.052Z,101438.09
2022-12-31T22:30:34.490Z,101450.00
2022-12-31T22:33:37.156Z,101451.09
2022-12-31T22:36:39.715Z,101435.13
2022-12-31T22:39:44.085Z,101444.59
2022-12-31T22:42:47.391Z,101428.31
2022-12-31T22:45:49.800Z,101426.81
2022-12-31T22:48:53.740Z,101436.16
2022-12-31T22:52:00.737Z,101421.75
2022-12-31T22:55:05.848Z,101431.88
2022-12-31T22:58:08.277Z,101439.75
2022-12-31T23:01:22.037Z,101434.13
2022-12-31T23:04:24.479Z,101436.56
2022-12-31T23:07:27.028Z,101410.13
2022-12-31T23:10:48.445Z,101429.91
2022-12-31T23:14:09.820Z,101418.28
2022-12-31T23:17:37.160Z,101421.22
2022-12-31T23:20:58.920Z,101419.09
2022-12-31T23:24:04.336Z,101418.66
2022-12-31T23:27:07.637Z,101418.53
2022-12-31T23:30:11.600Z,101410.13
2022-12-31T23:33:17.484Z,101425.38
2022-12-31T23:36:19.999Z,101418.19
2022-12-31T23:39:22.668Z,101412.75
2022-12-31T23:42:25.196Z,101415.00
2022-12-31T23:45:32.872Z,101413.78
2022-12-31T23:48:35.959Z,101427.63
2022-12-31T23:51:40.242Z,101409.69
2022-12-31T23:54:42.729Z,101428.53
2022-12-31T23:57:45.246Z,101416.19
